createdAt,value
2023-02-03T00:00:39.479Z,11.75
2023-02-03T00:03:07.663Z,9.13
2023-02-03T00:05:36.619Z,8.40
2023-02-03T00:08:05.903Z,9.93
2023-02-03T00:10:39.238Z,9.57
2023-02-03T00:13:07.613Z,10.70
2023-02-03T00:15:36.329Z,11.95
2023-02-03T00:18:04.019Z,12.25
2023-02-03T00:20:31.943Z,10.05
2023-02-03T00:23:10.804Z,9.63
2023-02-03T00:25:40.890Z,10.15
2023-02-03T00:28:08.595Z,9.63
2023-02-03T00:30:37.254Z,8.30
2023-02-03T00:33:05.484Z,9.35
2023-02-03T00:35:32.887Z,9.02
2023-02-03T00:38:00.742Z,5.93
2023-02-03T00:40:30.160Z,11.20
2023-02-03T00:42:57.762Z,11.75
2023-02-03T00:45:25.157Z,14.43
2023-02-03T00:47:53.064Z,11.52
2023-02-03T00:50:20.657Z,13.73
2023-02-03T00:52:47.848Z,12.23
2023-02-03T00:55:15.284Z,11.60
2023-02-03T00:57:43.249Z,14.23
2023-02-03T01:00:12.428Z,10.60
2023-02-03T01:02:39.752Z,14.82
2023-02-03T01:05:07.688Z,13.30
2023-02-03T01:07:35.033Z,12.70
2023-02-03T01:10:02.644Z,9.50
2023-02-03T01:12:32.218Z,12.32
2023-02-03T01:15:00.195Z,9.18
2023-02-03T01:17:27.633Z,9.15
2023-02-03T01:19:55.110Z,8.80
2023-02-03T01:22:22.687Z,9.40
2023-02-03T01:24:50.259Z,11.00
2023-02-03T01:27:17.708Z,9.02
2023-02-03T01:29:45.537Z,9.98
2023-02-03T01:32:13.194Z,9.48
2023-02-03T01:34:40.875Z,9.95
2023-02-03T01:37:08.313Z,12.13
2023-02-03T01:39:36.083Z,7.80
2023-02-03T01:42:03.959Z,11.35
2023-02-03T01:44:38.660Z,12.35
2023-02-03T01:47:28.344Z,9.25
2023-02-03T01:50:12.460Z,7.80
2023-02-03T01:52:44.372Z,10.77
2023-02-03T01:55:17.874Z,9.77
2023-02-03T01:57:53.835Z,9.90
2023-02-03T02:00:21.553Z,12.35
2023-02-03T02:02:50.737Z,11.38
2023-02-03T02:05:26.713Z,10.95
2023-02-03T02:07:55.572Z,10.70
2023-02-03T02:10:23.627Z,13.80
2023-02-03T02:12:52.247Z,9.77
2023-02-03T02:15:25.069Z,9.65
2023-02-03T02:18:23.547Z,8.57
2023-02-03T02:21:25.012Z,9.48
2023-02-03T02:24:20.009Z,10.27
2023-02-03T02:27:22.926Z,12.63
2023-02-03T02:30:14.853Z,11.43
2023-02-03T02:32:48.163Z,9.48
2023-02-03T02:35:33.744Z,11.90
2023-02-03T02:38:24.118Z,11.05
2023-02-03T02:41:07.011Z,11.88
2023-02-03T02:43:55.812Z,11.27
2023-02-03T02:46:38.458Z,11.00
2023-02-03T02:49:14.109Z,8.02
2023-02-03T02:51:44.305Z,11.98
2023-02-03T02:54:19.237Z,11.95
2023-02-03T02:56:52.181Z,10.82
2023-02-03T02:59:19.791Z,10.65
2023-02-03T03:01:47.680Z,9.90
2023-02-03T03:04:19.064Z,11.45
2023-02-03T03:07:02.018Z,11.65
2023-02-03T03:09:48.056Z,8.88
2023-02-03T03:12:24.037Z,10.73
2023-02-03T03:15:02.477Z,13.95
2023-02-03T03:18:16.619Z,12.30
2023-02-03T03:20:47.011Z,12.73
2023-02-03T03:23:34.559Z,10.20
2023-02-03T03:26:08.174Z,14.40
2023-02-03T03:28:49.586Z,10.32
2023-02-03T03:31:19.703Z,11.10
2023-02-03T03:33:49.518Z,8.60
2023-02-03T03:36:29.774Z,10.38
2023-02-03T03:39:03.215Z,10.15
2023-02-03T03:41:55.240Z,14.52
2023-02-03T03:44:27.780Z,11.73
2023-02-03T03:47:19.747Z,14.65
2023-02-03T03:49:50.513Z,14.15
2023-02-03T03:52:23.474Z,13.05
2023-02-03T03:54:54.331Z,10.63
2023-02-03T03:57:43.374Z,15.65
2023-02-03T04:00:14.724Z,10.90
2023-02-03T04:02:49.454Z,13.70
2023-02-03T04:05:17.011Z,12.80
2023-02-03T04:07:46.736Z,13.35
2023-02-03T04:10:37.310Z,9.07
2023-02-03T04:13:05.455Z,11.73
2023-02-03T04:15:34.406Z,13.50
2023-02-03T04:18:02.875Z,17.17
2023-02-03T04:20:32.750Z,10.32
2023-02-03T04:23:01.003Z,13.25
2023-02-03T04:25:28.636Z,10.57
2023-02-03T04:27:57.097Z,11.32
2023-02-03T04:30:24.977Z,13.07
2023-02-03T04:32:52.518Z,21.92
2023-02-03T04:35:22.881Z,11.15
2023-02-03T04:37:50.118Z,14.63
2023-02-03T04:40:18.090Z,13.23
2023-02-03T04:42:46.397Z,16.05
2023-02-03T04:45:13.898Z,13.82
2023-02-03T04:47:41.594Z,10.80
2023-02-03T04:50:11.125Z,15.93
2023-02-03T04:52:39.109Z,13.57
2023-02-03T04:55:09.954Z,12.38
2023-02-03T04:57:37.545Z,11.60
2023-02-03T05:00:05.650Z,12.32
2023-02-03T05:02:33.574Z,11.10
2023-02-03T05:05:01.137Z,12.23
2023-02-03T05:07:29.286Z,16.77
2023-02-03T05:09:57.315Z,12.75
2023-02-03T05:12:24.947Z,13.82
2023-02-03T05:14:52.104Z,11.25
2023-02-03T05:17:19.566Z,14.52
2023-02-03T05:19:46.946Z,18.50
2023-02-03T05:22:14.190Z,14.45
2023-02-03T05:24:42.016Z,15.57
2023-02-03T05:27:10.054Z,12.57
2023-02-03T05:29:37.836Z,11.60
2023-02-03T05:32:05.852Z,9.70
2023-02-03T05:34:33.697Z,13.77
2023-02-03T05:37:01.330Z,10.18
2023-02-03T05:39:29.117Z,13.10
2023-02-03T05:41:58.351Z,11.63
2023-02-03T05:44:28.654Z,17.98
2023-02-03T05:46:59.587Z,11.65
2023-02-03T05:49:27.417Z,10.23
2023-02-03T05:51:56.354Z,5.28
2023-02-03T05:54:23.923Z,10.98
2023-02-03T05:56:51.848Z,7.65
2023-02-03T05:59:19.397Z,6.63
2023-02-03T06:01:47.131Z,10.07
2023-02-03T06:04:14.784Z,6.30
2023-02-03T06:06:42.495Z,8.68
2023-02-03T06:09:10.126Z,7.72
2023-02-03T06:11:37.755Z,6.35
2023-02-03T06:14:06.080Z,6.97
2023-02-03T06:16:33.549Z,5.60
2023-02-03T06:19:02.299Z,5.38
2023-02-03T06:21:30.031Z,3.08
2023-02-03T06:23:57.729Z,4.78
2023-02-03T06:26:26.308Z,5.35
2023-02-03T06:28:53.824Z,8.20
2023-02-03T06:31:21.420Z,5.95
2023-02-03T06:33:49.004Z,7.18
2023-02-03T06:36:19.499Z,10.00
2023-02-03T06:38:47.251Z,5.07
2023-02-03T06:41:14.624Z,3.45
2023-02-03T06:43:42.237Z,1.92
2023-02-03T06:46:09.667Z,2.20
2023-02-03T06:48:37.181Z,3.17
2023-02-03T06:51:05.918Z,2.42
2023-02-03T06:53:33.277Z,2.72
2023-02-03T06:56:02.494Z,4.07
2023-02-03T06:58:30.041Z,3.42
2023-02-03T07:00:58.329Z,2.03
2023-02-03T07:03:25.611Z,2.35
2023-02-03T07:05:53.440Z,3.72
2023-02-03T07:08:20.992Z,1.85
2023-02-03T07:10:48.692Z,2.83
2023-02-03T07:13:17.243Z,2.08
2023-02-03T07:15:44.967Z,1.98
2023-02-03T07:18:15.016Z,1.95
2023-02-03T07:20:45.567Z,3.50
2023-02-03T07:23:13.093Z,4.13
2023-02-03T07:25:40.807Z,2.50
2023-02-03T07:28:08.563Z,2.35
2023-02-03T07:30:36.594Z,1.92
2023-02-03T07:33:04.063Z,3.20
2023-02-03T07:35:31.570Z,2.00
2023-02-03T07:37:58.865Z,2.55
2023-02-03T07:40:28.156Z,1.75
2023-02-03T07:42:55.657Z,1.83
2023-02-03T07:45:25.115Z,2.58
2023-02-03T07:47:52.924Z,2.65
2023-02-03T07:50:21.113Z,4.65
2023-02-03T07:52:54.012Z,2.42
2023-02-03T07:55:23.815Z,2.85
2023-02-03T07:57:51.629Z,3.30
2023-02-03T08:00:19.729Z,2.42
2023-02-03T08:02:47.734Z,3.22
2023-02-03T08:05:16.429Z,3.53
2023-02-03T08:07:44.248Z,2.75
2023-02-03T08:10:13.932Z,4.18
2023-02-03T08:12:45.106Z,5.55
2023-02-03T08:15:13.592Z,4.22
2023-02-03T08:17:42.500Z,3.95
2023-02-03T08:20:10.969Z,2.55
2023-02-03T08:22:38.845Z,3.25
2023-02-03T08:25:06.867Z,3.85
2023-02-03T08:27:34.346Z,3.75
2023-02-03T08:30:01.692Z,5.07
2023-02-03T08:32:29.182Z,2.85
2023-02-03T08:34:57.230Z,7.38
2023-02-03T08:37:25.829Z,4.60
2023-02-03T08:39:54.624Z,3.17
2023-02-03T08:42:22.343Z,6.07
2023-02-03T08:44:50.193Z,4.47
2023-02-03T08:47:18.369Z,3.47
2023-02-03T08:49:46.675Z,2.72
2023-02-03T08:52:18.167Z,3.97
2023-02-03T08:54:47.887Z,4.80
2023-02-03T08:57:17.227Z,4.93
2023-02-03T08:59:45.297Z,3.03
2023-02-03T09:02:17.603Z,4.40
2023-02-03T09:04:46.544Z,4.18
2023-02-03T09:07:14.096Z,5.63
2023-02-03T09:09:41.767Z,3.03
2023-02-03T09:12:11.097Z,3.65
2023-02-03T09:14:38.769Z,3.75
2023-02-03T09:17:10.735Z,3.00
2023-02-03T09:19:38.739Z,4.13
2023-02-03T09:22:06.818Z,3.08
2023-02-03T09:24:35.250Z,4.55
2023-02-03T09:27:06.304Z,3.53
2023-02-03T09:29:34.267Z,3.10
2023-02-03T09:32:15.453Z,3.75
2023-02-03T09:34:43.241Z,3.58
2023-02-03T09:37:11.627Z,5.32
2023-02-03T09:39:40.024Z,2.63
2023-02-03T09:42:29.813Z,3.35
2023-02-03T09:45:33.384Z,3.42
2023-02-03T09:48:11.473Z,4.47
2023-02-03T09:50:43.796Z,3.72
2023-02-03T09:53:30.147Z,3.42
2023-02-03T09:56:00.042Z,3.05
2023-02-03T09:58:36.325Z,3.17
2023-02-03T10:01:13.786Z,2.60
2023-02-03T10:04:05.260Z,3.03
2023-02-03T10:06:39.156Z,2.83
2023-02-03T10:09:09.899Z,4.72
2023-02-03T10:11:57.164Z,2.45
2023-02-03T10:14:35.796Z,3.25
2023-02-03T10:17:27.257Z,2.08
2023-02-03T10:20:10.675Z,2.53
2023-02-03T10:22:46.120Z,4.80
2023-02-03T10:25:25.619Z,2.60
2023-02-03T10:28:00.457Z,2.35
2023-02-03T10:30:46.134Z,2.03
2023-02-03T10:33:18.074Z,2.95
2023-02-03T10:36:02.522Z,2.13
2023-02-03T10:38:49.390Z,2.72
2023-02-03T10:41:20.405Z,2.00
2023-02-03T10:43:55.525Z,2.95
2023-02-03T10:46:35.826Z,4.70
2023-02-03T10:49:04.422Z,3.00
2023-02-03T10:51:43.884Z,2.50
2023-02-03T10:54:34.476Z,2.08
2023-02-03T10:57:15.382Z,4.38
2023-02-03T10:59:45.836Z,2.75
2023-02-03T11:02:31.953Z,2.60
2023-02-03T11:05:32.726Z,2.60
2023-02-03T11:08:01.024Z,2.25
2023-02-03T11:10:37.423Z,2.00
2023-02-03T11:13:22.268Z,3.22
2023-02-03T11:16:06.966Z,2.10
2023-02-03T11:18:42.656Z,3.72
2023-02-03T11:21:18.181Z,3.30
2023-02-03T11:23:55.763Z,2.15
2023-02-03T11:26:29.209Z,1.95
2023-02-03T11:29:01.027Z,2.53
2023-02-03T11:31:38.218Z,3.77
2023-02-03T11:34:17.869Z,2.28
2023-02-03T11:36:49.112Z,5.10
2023-02-03T11:39:25.909Z,2.55
2023-02-03T13:48:28.242Z,1.80
2023-02-03T13:51:03.634Z,2.23
2023-02-03T13:53:40.061Z,1.52
2023-02-03T13:56:11.478Z,1.50
2023-02-03T13:58:46.017Z,1.05
2023-02-03T14:01:42.710Z,2.65
2023-02-03T14:04:26.951Z,3.08
2023-02-03T14:07:07.424Z,3.15
2023-02-03T14:09:43.132Z,2.72
2023-02-03T14:12:31.942Z,2.15
2023-02-03T14:15:45.720Z,2.65
2023-02-03T14:18:22.619Z,1.83
2023-02-03T14:20:55.950Z,2.60
2023-02-03T14:23:29.276Z,1.83
2023-02-03T14:26:01.362Z,3.38
2023-02-03T14:28:43.101Z,1.60
2023-02-03T14:31:19.494Z,2.35
2023-02-03T14:33:53.437Z,3.22
2023-02-03T14:36:47.779Z,4.63
2023-02-03T14:39:24.277Z,3.58
2023-02-03T14:42:11.896Z,3.33
2023-02-03T14:45:04.559Z,4.13
2023-02-03T14:47:49.127Z,4.50
2023-02-03T14:50:35.907Z,4.38
2023-02-03T14:53:15.458Z,3.08
2023-02-03T14:56:13.564Z,2.38
2023-02-03T14:58:53.852Z,1.55
2023-02-03T15:01:39.363Z,1.65
2023-02-03T15:04:12.883Z,1.27
2023-02-03T15:06:43.580Z,2.25
2023-02-03T15:09:28.029Z,1.55
2023-02-03T15:11:55.789Z,1.55
2023-02-03T15:14:31.816Z,3.65
2023-02-03T15:17:11.247Z,2.33
2023-02-03T15:19:41.645Z,4.40
2023-02-03T15:22:26.676Z,2.05
2023-02-03T15:24:57.623Z,4.45
2023-02-03T15:27:29.602Z,5.50
2023-02-03T15:29:59.535Z,3.65
2023-02-03T15:32:34.833Z,1.77
2023-02-03T15:35:06.093Z,5.22
2023-02-03T15:37:51.138Z,2.95
2023-02-03T15:40:20.644Z,1.48
2023-02-03T15:42:58.488Z,1.90
2023-02-03T15:45:31.186Z,1.83
2023-02-03T15:48:07.482Z,2.00
2023-02-03T15:50:45.265Z,2.80
2023-02-03T15:53:47.721Z,2.83
2023-02-03T15:56:41.705Z,1.52
2023-02-03T15:59:35.708Z,1.80
2023-02-03T16:02:15.318Z,1.35
2023-02-03T16:04:42.954Z,4.40
2023-02-03T16:07:30.861Z,3.45
2023-02-03T16:10:00.284Z,2.72
2023-02-03T16:12:34.940Z,3.90
2023-02-03T16:15:03.632Z,5.10
2023-02-03T16:17:39.625Z,2.67
2023-02-03T16:20:12.991Z,2.03
2023-02-03T16:22:46.115Z,2.42
2023-02-03T16:25:16.277Z,2.45
2023-02-03T16:28:32.226Z,4.15
2023-02-03T16:31:22.084Z,1.05
2023-02-03T16:34:09.527Z,2.42
2023-02-03T16:37:01.505Z,1.42
2023-02-03T16:39:47.770Z,2.92
2023-02-03T16:42:40.365Z,2.45
2023-02-03T16:45:34.527Z,2.95
2023-02-03T16:48:21.819Z,2.85
2023-02-03T16:50:53.834Z,2.63
2023-02-03T16:53:29.279Z,1.77
2023-02-03T16:55:58.893Z,1.75
2023-02-03T16:58:26.411Z,1.60
2023-02-03T17:00:54.967Z,1.77
2023-02-03T17:03:24.908Z,1.00
2023-02-03T17:05:52.537Z,2.78
2023-02-03T17:08:22.284Z,4.97
2023-02-03T17:10:50.030Z,1.80
2023-02-03T17:13:19.804Z,1.45
2023-02-03T17:15:50.223Z,1.38
2023-02-03T17:18:17.611Z,1.90
2023-02-03T17:20:46.172Z,2.83
2023-02-03T17:23:16.691Z,2.35
2023-02-03T17:25:49.420Z,1.63
2023-02-03T17:30:44.434Z,1.83
2023-02-03T17:33:14.874Z,1.10
2023-02-03T17:35:44.690Z,1.67
2023-02-03T17:38:13.606Z,3.47
2023-02-03T17:54:38.269Z,3.72
2023-02-03T17:57:06.014Z,3.28
2023-02-03T17:59:35.614Z,2.38
2023-02-03T18:02:02.933Z,3.88
2023-02-03T18:04:30.612Z,3.30
2023-02-03T18:07:01.166Z,2.30
2023-02-03T18:09:28.834Z,2.58
2023-02-03T18:11:56.226Z,4.22
2023-02-03T18:14:23.906Z,6.32
2023-02-03T18:16:51.499Z,3.33
2023-02-03T18:19:19.037Z,3.90
2023-02-03T18:21:46.187Z,8.43
2023-02-03T18:24:14.572Z,8.63
2023-02-03T18:26:48.600Z,4.15
2023-02-03T18:29:15.994Z,3.88
2023-02-03T18:31:44.336Z,5.72
2023-02-03T18:34:13.024Z,5.00
2023-02-03T18:41:42.379Z,5.55
2023-02-03T18:44:09.990Z,4.18
2023-02-03T18:46:37.527Z,7.07
2023-02-03T18:49:08.286Z,6.10
2023-02-03T18:51:35.553Z,4.95
2023-02-03T18:54:03.757Z,3.35
2023-02-03T18:56:37.383Z,3.63
2023-02-03T18:59:06.662Z,2.20
2023-02-03T19:01:34.062Z,3.78
2023-02-03T19:04:03.712Z,6.47
2023-02-03T19:06:33.024Z,3.00
2023-02-03T19:09:01.514Z,3.92
2023-02-03T19:11:29.268Z,2.53
2023-02-03T19:13:56.592Z,6.18
2023-02-03T19:16:24.080Z,4.10
2023-02-03T19:18:51.307Z,5.18
2023-02-03T19:21:18.569Z,3.97
2023-02-03T19:23:45.988Z,4.00
2023-02-03T19:26:13.742Z,3.78
2023-02-03T19:28:41.707Z,3.38
2023-02-03T19:31:15.591Z,2.35
2023-02-03T19:33:43.922Z,3.97
2023-02-03T19:36:11.739Z,3.70
2023-02-03T19:38:39.095Z,6.03
2023-02-03T19:41:07.918Z,2.85
2023-02-03T20:49:01.004Z,4.05
2023-02-03T20:51:31.105Z,2.92
2023-02-03T20:54:01.279Z,4.05
2023-02-03T20:56:30.369Z,4.93
2023-02-03T20:58:58.191Z,3.40
2023-02-03T21:01:26.735Z,5.38
2023-02-03T21:04:15.662Z,2.85
2023-02-03T21:06:45.351Z,3.22
2023-02-03T21:09:21.383Z,2.90
2023-02-03T21:11:49.342Z,3.85
2023-02-03T21:14:28.158Z,3.92
2023-02-03T21:16:56.300Z,5.30
2023-02-03T21:19:34.100Z,2.95
2023-02-03T21:22:26.690Z,2.25
2023-02-03T21:24:59.480Z,4.10
2023-02-03T21:29:57.866Z,2.83
2023-02-03T21:32:31.556Z,3.85
2023-02-03T21:35:01.040Z,2.95
2023-02-03T21:37:40.952Z,2.40
2023-02-03T21:40:37.871Z,3.90
2023-02-03T21:43:16.409Z,2.17
2023-02-03T21:45:44.861Z,4.65
2023-02-03T21:48:39.925Z,3.03
2023-02-03T21:51:21.521Z,3.10
2023-02-03T21:53:54.783Z,3.55
2023-02-03T21:56:42.640Z,2.55
2023-02-03T21:59:21.404Z,5.28
2023-02-03T22:01:49.814Z,7.05
2023-02-03T22:04:17.247Z,4.53
2023-02-03T22:06:50.454Z,2.75
2023-02-03T22:09:20.125Z,3.90
2023-02-03T22:11:47.947Z,3.80
2023-02-03T22:14:16.815Z,2.67
2023-02-03T22:16:44.997Z,4.60
2023-02-03T22:19:12.387Z,3.63
2023-02-03T22:21:39.886Z,4.32
2023-02-03T22:24:07.317Z,2.38
2023-02-03T22:26:35.012Z,3.20
2023-02-03T22:29:02.885Z,3.75
2023-02-03T22:31:30.416Z,2.45
2023-02-03T22:33:57.850Z,3.13
2023-02-03T22:36:26.067Z,3.60
2023-02-03T22:38:54.117Z,4.60
2023-02-03T22:41:22.084Z,0.95
2023-02-03T22:43:49.438Z,4.50
2023-02-03T22:46:16.677Z,4.43
2023-02-03T22:48:44.022Z,9.35
2023-02-03T22:51:11.344Z,5.38
2023-02-03T22:53:40.037Z,4.85
2023-02-03T22:56:08.036Z,4.68
2023-02-03T22:58:35.747Z,3.72
2023-02-03T23:01:03.517Z,6.82
2023-02-03T23:03:32.856Z,3.60
2023-02-03T23:06:00.221Z,5.40
2023-02-03T23:08:27.961Z,5.72
2023-02-03T23:10:56.522Z,5.40
2023-02-03T23:13:23.933Z,1.70
2023-02-03T23:15:51.433Z,1.15
2023-02-03T23:18:18.684Z,1.67
2023-02-03T23:20:46.260Z,2.60
2023-02-03T23:23:14.617Z,4.28
2023-02-03T23:25:41.832Z,6.60
2023-02-03T23:28:09.108Z,7.18
2023-02-03T23:30:36.467Z,4.13
2023-02-03T23:33:03.660Z,4.43
2023-02-03T23:35:46.487Z,3.83
2023-02-03T23:40:42.177Z,6.38
2023-02-03T23:43:09.626Z,4.20
2023-02-03T23:45:37.187Z,1.77
2023-02-03T23:48:04.904Z,4.40
2023-02-03T23:50:32.766Z,2.75
2023-02-03T23:53:00.278Z,4.57
2023-02-03T23:55:27.396Z,1.48
2023-02-03T23:57:55.502Z,3.20
